sensor_id;sensor_type;location;lat;lon;timestamp;pressure;altitude;pressure_sealevel;temperature;humidity
68301;BME280;55146;47.468;18.806;2024-03-25T00:02:05;99059.44;;;4.95;90.43
68301;BME280;55146;47.468;18.806;2024-03-25T00:04:30;99055.63;;;4.91;90.75
68301;BME280;55146;47.468;18.806;2024-03-25T00:06:55;99056.41;;;4.86;90.79
68301;BME280;55146;47.468;18.806;2024-03-25T00:09:22;99056.37;;;4.81;90.54
68301;BME280;55146;47.468;18.806;2024-03-25T00:11:47;99059.38;;;4.79;90.25
68301;BME280;55146;47.468;18.806;2024-03-25T00:14:13;99062.09;;;4.79;89.79
68301;BME280;55146;47.468;18.806;2024-03-25T00:16:39;99054.41;;;4.71;89.35
68301;BME280;55146;47.468;18.806;2024-03-25T00:19:04;99058.75;;;4.67;89.58
68301;BME280;55146;47.468;18.806;2024-03-25T00:21:29;99057.09;;;4.66;90.04
68301;BME280;55146;47.468;18.806;2024-03-25T00:23:55;99056.81;;;4.63;89.98
68301;BME280;55146;47.468;18.806;2024-03-25T00:26:23;99052.25;;;4.73;88.98
68301;BME280;55146;47.468;18.806;2024-03-25T00:28:49;99052.12;;;4.58;90.47
68301;BME280;55146;47.468;18.806;2024-03-25T00:31:14;99053.16;;;4.52;91.13
68301;BME280;55146;47.468;18.806;2024-03-25T00:33:39;99044.78;;;4.59;91.22
68301;BME280;55146;47.468;18.806;2024-03-25T00:36:05;99042.31;;;4.57;91.30
68301;BME280;55146;47.468;18.806;2024-03-25T00:38:30;99040.69;;;4.56;91.71
68301;BME280;55146;47.468;18.806;2024-03-25T00:40:56;99037.44;;;3.95;95.64
68301;BME280;55146;47.468;18.806;2024-03-25T00:43:23;99036.34;;;4.23;94.13
68301;BME280;55146;47.468;18.806;2024-03-25T00:45:48;99033.28;;;4.20;93.50
68301;BME280;55146;47.468;18.806;2024-03-25T00:48:13;99038.38;;;4.38;94.10
68301;BME280;55146;47.468;18.806;2024-03-25T00:50:39;99035.72;;;4.48;94.55
68301;BME280;55146;47.468;18.806;2024-03-25T00:53:04;99042.03;;;4.54;93.75
68301;BME280;55146;47.468;18.806;2024-03-25T00:55:29;99029.47;;;4.53;92.88
68301;BME280;55146;47.468;18.806;2024-03-25T00:57:55;99036.88;;;4.57;92.63
68301;BME280;55146;47.468;18.806;2024-03-25T01:00:21;99041.19;;;4.53;92.26
68301;BME280;55146;47.468;18.806;2024-03-25T01:02:46;99039.53;;;4.47;92.07
68301;BME280;55146;47.468;18.806;2024-03-25T01:05:12;99041.66;;;4.45;92.02
68301;BME280;55146;47.468;18.806;2024-03-25T01:07:37;99040.56;;;4.41;91.82
68301;BME280;55146;47.468;18.806;2024-03-25T01:10:03;99032.31;;;4.31;91.89
68301;BME280;55146;47.468;18.806;2024-03-25T01:12:28;99037.22;;;4.34;92.27
68301;BME280;55146;47.468;18.806;2024-03-25T01:14:53;99036.41;;;4.33;91.41
68301;BME280;55146;47.468;18.806;2024-03-25T01:17:19;99032.56;;;4.29;91.55
68301;BME280;55146;47.468;18.806;2024-03-25T01:19:44;99034.44;;;4.24;91.32
68301;BME280;55146;47.468;18.806;2024-03-25T01:22:09;99033.91;;;4.27;91.44
68301;BME280;55146;47.468;18.806;2024-03-25T01:24:35;99034.53;;;4.39;91.90
68301;BME280;55146;47.468;18.806;2024-03-25T01:27:00;99030.22;;;4.38;92.07
68301;BME280;55146;47.468;18.806;2024-03-25T01:29:26;99024.47;;;4.39;92.50
68301;BME280;55146;47.468;18.806;2024-03-25T01:31:51;99034.06;;;4.47;92.78
68301;BME280;55146;47.468;18.806;2024-03-25T01:34:17;99029.72;;;4.46;92.38
68301;BME280;55146;47.468;18.806;2024-03-25T01:36:42;99028.88;;;4.45;92.63
68301;BME280;55146;47.468;18.806;2024-03-25T01:39:08;99037.91;;;4.51;92.05
68301;BME280;55146;47.468;18.806;2024-03-25T01:41:33;99031.69;;;4.56;91.53
68301;BME280;55146;47.468;18.806;2024-03-25T01:43:59;99032.53;;;4.56;92.40
68301;BME280;55146;47.468;18.806;2024-03-25T01:46:24;99033.59;;;4.55;92.69
68301;BME280;55146;47.468;18.806;2024-03-25T01:48:50;99033.28;;;4.52;92.09
68301;BME280;55146;47.468;18.806;2024-03-25T01:51:19;99028.97;;;4.56;93.04
68301;BME280;55146;47.468;18.806;2024-03-25T01:53:46;99033.37;;;4.62;92.19
68301;BME280;55146;47.468;18.806;2024-03-25T01:56:13;99029.25;;;4.59;91.41
68301;BME280;55146;47.468;18.806;2024-03-25T01:58:39;99029.84;;;4.61;92.27
68301;BME280;55146;47.468;18.806;2024-03-25T02:01:05;99027.41;;;4.70;92.29
68301;BME280;55146;47.468;18.806;2024-03-25T02:03:31;99031.00;;;4.75;92.37
68301;BME280;55146;47.468;18.806;2024-03-25T02:06:00;99032.41;;;4.83;92.31
68301;BME280;55146;47.468;18.806;2024-03-25T02:08:26;99026.94;;;4.78;91.96
68301;BME280;55146;47.468;18.806;2024-03-25T02:10:54;99025.59;;;4.80;91.98
68301;BME280;55146;47.468;18.806;2024-03-25T02:13:20;99023.97;;;4.79;92.45
68301;BME280;55146;47.468;18.806;2024-03-25T02:15:46;99032.16;;;4.84;92.98
68301;BME280;55146;47.468;18.806;2024-03-25T02:18:12;99015.81;;;4.89;93.47
68301;BME280;55146;47.468;18.806;2024-03-25T02:20:37;99015.56;;;4.91;93.58
68301;BME280;55146;47.468;18.806;2024-03-25T02:23:02;99011.47;;;4.88;92.59
68301;BME280;55146;47.468;18.806;2024-03-25T02:25:30;99015.81;;;4.89;92.86
68301;BME280;55146;47.468;18.806;2024-03-25T02:27:56;99017.72;;;4.84;93.33
68301;BME280;55146;47.468;18.806;2024-03-25T02:30:21;99018.03;;;4.87;92.50
68301;BME280;55146;47.468;18.806;2024-03-25T02:32:47;99019.09;;;4.86;92.12
68301;BME280;55146;47.468;18.806;2024-03-25T02:35:15;99022.66;;;4.87;91.66
68301;BME280;55146;47.468;18.806;2024-03-25T02:37:41;99013.09;;;4.84;91.56
68301;BME280;55146;47.468;18.806;2024-03-25T02:40:08;99013.31;;;4.78;91.61
68301;BME280;55146;47.468;18.806;2024-03-25T02:42:35;99018.72;;;4.73;91.44
68301;BME280;55146;47.468;18.806;2024-03-25T02:45:02;99013.50;;;4.61;90.99
68301;BME280;55146;47.468;18.806;2024-03-25T02:47:27;99019.41;;;4.53;91.79
68301;BME280;55146;47.468;18.806;2024-03-25T02:49:52;99021.03;;;4.49;92.23
68301;BME280;55146;47.468;18.806;2024-03-25T02:52:19;99024.28;;;4.51;92.09
68301;BME280;55146;47.468;18.806;2024-03-25T02:54:44;99024.34;;;4.56;92.53
68301;BME280;55146;47.468;18.806;2024-03-25T02:57:10;99015.91;;;4.58;92.66
68301;BME280;55146;47.468;18.806;2024-03-25T02:59:35;99024.06;;;4.58;92.92
68301;BME280;55146;47.468;18.806;2024-03-25T03:02:01;99028.75;;;4.62;92.87
68301;BME280;55146;47.468;18.806;2024-03-25T03:04:26;99023.09;;;4.74;93.21
68301;BME280;55146;47.468;18.806;2024-03-25T03:06:51;99018.44;;;4.69;93.40
68301;BME280;55146;47.468;18.806;2024-03-25T03:09:17;99020.84;;;4.61;93.54
68301;BME280;55146;47.468;18.806;2024-03-25T03:11:42;99019.78;;;4.67;95.17
68301;BME280;55146;47.468;18.806;2024-03-25T03:14:08;99027.38;;;4.65;95.00
68301;BME280;55146;47.468;18.806;2024-03-25T03:16:34;99024.34;;;4.19;97.55
68301;BME280;55146;47.468;18.806;2024-03-25T03:18:59;99027.44;;;4.01;100.00
68301;BME280;55146;47.468;18.806;2024-03-25T03:21:24;99034.78;;;4.00;100.00
68301;BME280;55146;47.468;18.806;2024-03-25T03:23:50;99034.03;;;4.10;100.00
68301;BME280;55146;47.468;18.806;2024-03-25T03:26:15;99034.50;;;4.34;98.81
68301;BME280;55146;47.468;18.806;2024-03-25T03:28:40;99033.19;;;4.36;96.57
68301;BME280;55146;47.468;18.806;2024-03-25T03:31:06;99029.62;;;4.36;95.70
68301;BME280;55146;47.468;18.806;2024-03-25T03:33:31;99026.13;;;4.40;94.92
68301;BME280;55146;47.468;18.806;2024-03-25T03:35:57;99026.28;;;4.24;96.67
68301;BME280;55146;47.468;18.806;2024-03-25T03:38:22;99031.72;;;4.24;96.47
68301;BME280;55146;47.468;18.806;2024-03-25T03:41:02;99031.81;;;4.39;96.22
68301;BME280;55146;47.468;18.806;2024-03-25T03:43:28;99031.75;;;4.29;96.61
68301;BME280;55146;47.468;18.806;2024-03-25T03:45:54;99041.78;;;4.55;96.05
68301;BME280;55146;47.468;18.806;2024-03-25T03:48:19;99037.25;;;4.71;95.79
68301;BME280;55146;47.468;18.806;2024-03-25T03:50:45;99041.41;;;4.83;95.70
68301;BME280;55146;47.468;18.806;2024-03-25T03:53:10;99043.34;;;4.88;96.18
68301;BME280;55146;47.468;18.806;2024-03-25T03:55:36;99042.59;;;4.98;96.47
68301;BME280;55146;47.468;18.806;2024-03-25T03:58:02;99044.25;;;5.04;95.85
68301;BME280;55146;47.468;18.806;2024-03-25T04:00:27;99038.00;;;5.08;95.77
68301;BME280;55146;47.468;18.806;2024-03-25T04:02:53;99036.94;;;5.14;95.97
68301;BME280;55146;47.468;18.806;2024-03-25T04:05:18;99037.78;;;5.15;95.14
68301;BME280;55146;47.468;18.806;2024-03-25T04:07:44;99042.97;;;5.16;93.50
68301;BME280;55146;47.468;18.806;2024-03-25T04:10:09;99044.84;;;5.11;92.88
68301;BME280;55146;47.468;18.806;2024-03-25T04:12:35;99052.25;;;5.20;93.91
68301;BME280;55146;47.468;18.806;2024-03-25T04:15:02;99048.19;;;5.23;94.59
68301;BME280;55146;47.468;18.806;2024-03-25T04:17:28;99059.12;;;5.33;94.65
68301;BME280;55146;47.468;18.806;2024-03-25T04:19:53;99059.38;;;5.32;94.32
68301;BME280;55146;47.468;18.806;2024-03-25T04:22:18;99060.19;;;5.27;93.43
68301;BME280;55146;47.468;18.806;2024-03-25T04:24:44;99064.81;;;5.32;93.74
68301;BME280;55146;47.468;18.806;2024-03-25T04:27:09;99072.75;;;5.33;94.29
68301;BME280;55146;47.468;18.806;2024-03-25T04:29:35;99079.19;;;5.12;92.14
68301;BME280;55146;47.468;18.806;2024-03-25T04:32:00;99071.25;;;5.05;94.12
68301;BME280;55146;47.468;18.806;2024-03-25T04:34:27;99074.13;;;4.88;94.09
68301;BME280;55146;47.468;18.806;2024-03-25T04:36:52;99076.34;;;4.55;95.62
68301;BME280;55146;47.468;18.806;2024-03-25T04:39:19;99079.34;;;4.58;95.29
68301;BME280;55146;47.468;18.806;2024-03-25T04:41:44;99086.28;;;4.76;94.33
68301;BME280;55146;47.468;18.806;2024-03-25T04:44:10;99084.13;;;4.73;93.71
68301;BME280;55146;47.468;18.806;2024-03-25T04:46:35;99082.28;;;4.83;92.75
68301;BME280;55146;47.468;18.806;2024-03-25T04:49:00;99087.13;;;4.76;93.57
68301;BME280;55146;47.468;18.806;2024-03-25T04:51:26;99096.88;;;4.67;94.13
68301;BME280;55146;47.468;18.806;2024-03-25T04:53:52;99098.22;;;4.70;93.95
68301;BME280;55146;47.468;18.806;2024-03-25T04:56:18;99095.28;;;4.76;93.91
68301;BME280;55146;47.468;18.806;2024-03-25T04:58:43;99100.78;;;4.81;93.29
68301;BME280;55146;47.468;18.806;2024-03-25T05:01:09;99108.47;;;4.89;93.10
68301;BME280;55146;47.468;18.806;2024-03-25T05:03:34;99104.78;;;5.06;91.42
68301;BME280;55146;47.468;18.806;2024-03-25T05:05:59;99102.37;;;5.19;91.16
68301;BME280;55146;47.468;18.806;2024-03-25T05:08:25;99100.22;;;5.21;91.71
68301;BME280;55146;47.468;18.806;2024-03-25T05:10:50;99101.63;;;5.24;91.20
68301;BME280;55146;47.468;18.806;2024-03-25T05:13:15;99110.88;;;5.23;91.87
68301;BME280;55146;47.468;18.806;2024-03-25T05:15:41;99113.09;;;5.31;91.07
68301;BME280;55146;47.468;18.806;2024-03-25T05:18:14;99112.19;;;5.15;93.81
68301;BME280;55146;47.468;18.806;2024-03-25T05:20:40;99110.69;;;5.40;91.83
68301;BME280;55146;47.468;18.806;2024-03-25T05:23:05;99120.81;;;5.49;91.87
68301;BME280;55146;47.468;18.806;2024-03-25T05:25:31;99121.34;;;5.41;92.23
68301;BME280;55146;47.468;18.806;2024-03-25T05:27:56;99133.06;;;5.42;93.61
68301;BME280;55146;47.468;18.806;2024-03-25T05:30:21;99137.91;;;5.29;93.92
68301;BME280;55146;47.468;18.806;2024-03-25T05:32:48;99136.53;;;5.27;94.92
68301;BME280;55146;47.468;18.806;2024-03-25T05:35:13;99142.50;;;5.24;94.63
68301;BME280;55146;47.468;18.806;2024-03-25T05:37:39;99137.44;;;5.43;94.07
68301;BME280;55146;47.468;18.806;2024-03-25T05:40:04;99146.59;;;5.26;94.66
68301;BME280;55146;47.468;18.806;2024-03-25T05:42:30;99142.81;;;5.33;95.15
68301;BME280;55146;47.468;18.806;2024-03-25T05:44:55;99151.53;;;5.29;94.71
68301;BME280;55146;47.468;18.806;2024-03-25T05:47:20;99150.47;;;5.31;94.99
68301;BME280;55146;47.468;18.806;2024-03-25T05:49:46;99146.84;;;5.25;96.36
68301;BME280;55146;47.468;18.806;2024-03-25T05:52:12;99145.34;;;5.44;94.81
68301;BME280;55146;47.468;18.806;2024-03-25T05:54:37;99151.03;;;5.38;94.50
68301;BME280;55146;47.468;18.806;2024-03-25T05:57:03;99149.22;;;5.53;94.84
68301;BME280;55146;47.468;18.806;2024-03-25T05:59:28;99145.94;;;5.56;93.51
68301;BME280;55146;47.468;18.806;2024-03-25T06:01:54;99150.91;;;5.64;93.34
68301;BME280;55146;47.468;18.806;2024-03-25T06:04:20;99145.66;;;5.53;94.56
68301;BME280;55146;47.468;18.806;2024-03-25T06:06:45;99151.16;;;5.63;94.04
68301;BME280;55146;47.468;18.806;2024-03-25T06:09:10;99148.47;;;5.68;93.96
68301;BME280;55146;47.468;18.806;2024-03-25T06:11:36;99144.94;;;5.67;94.40
68301;BME280;55146;47.468;18.806;2024-03-25T06:14:01;99145.84;;;5.88;92.49
68301;BME280;55146;47.468;18.806;2024-03-25T06:16:26;99142.06;;;5.94;94.02
68301;BME280;55146;47.468;18.806;2024-03-25T06:18:53;99149.97;;;5.96;93.05
68301;BME280;55146;47.468;18.806;2024-03-25T06:21:18;99145.34;;;5.96;92.67
68301;BME280;55146;47.468;18.806;2024-03-25T06:23:43;99144.03;;;6.14;90.38
68301;BME280;55146;47.468;18.806;2024-03-25T06:26:09;99150.31;;;6.15;90.01
68301;BME280;55146;47.468;18.806;2024-03-25T06:28:34;99142.69;;;6.17;90.65
68301;BME280;55146;47.468;18.806;2024-03-25T06:31:00;99138.59;;;6.24;89.03
68301;BME280;55146;47.468;18.806;2024-03-25T06:33:43;99150.62;;;6.28;90.92
68301;BME280;55146;47.468;18.806;2024-03-25T06:36:27;99152.00;;;6.36;90.43
68301;BME280;55146;47.468;18.806;2024-03-25T06:38:52;99156.16;;;6.59;90.22
68301;BME280;55146;47.468;18.806;2024-03-25T06:41:18;99164.91;;;6.76;89.94
68301;BME280;55146;47.468;18.806;2024-03-25T06:43:44;99165.16;;;6.74;90.16
68301;BME280;55146;47.468;18.806;2024-03-25T06:46:09;99158.91;;;6.89;90.27
68301;BME280;55146;47.468;18.806;2024-03-25T06:48:34;99164.88;;;7.11;90.37
68301;BME280;55146;47.468;18.806;2024-03-25T06:51:00;99164.34;;;7.19;88.60
68301;BME280;55146;47.468;18.806;2024-03-25T06:53:28;99169.25;;;7.22;87.34
68301;BME280;55146;47.468;18.806;2024-03-25T06:55:54;99161.06;;;7.12;85.40
68301;BME280;55146;47.468;18.806;2024-03-25T06:58:21;99163.78;;;7.27;87.14
68301;BME280;55146;47.468;18.806;2024-03-25T07:00:47;99160.47;;;7.36;86.06
68301;BME280;55146;47.468;18.806;2024-03-25T07:03:14;99172.53;;;7.40;83.40
68301;BME280;55146;47.468;18.806;2024-03-25T07:05:40;99177.47;;;7.32;83.04
68301;BME280;55146;47.468;18.806;2024-03-25T07:08:05;99178.56;;;7.31;83.66
68301;BME280;55146;47.468;18.806;2024-03-25T07:10:31;99176.59;;;7.52;83.04
68301;BME280;55146;47.468;18.806;2024-03-25T07:12:56;99179.09;;;7.28;83.54
68301;BME280;55146;47.468;18.806;2024-03-25T07:15:21;99179.91;;;7.24;83.03
68301;BME280;55146;47.468;18.806;2024-03-25T07:17:47;99183.75;;;7.38;82.19
68301;BME280;55146;47.468;18.806;2024-03-25T07:20:12;99181.81;;;7.28;82.78
68301;BME280;55146;47.468;18.806;2024-03-25T07:22:38;99182.06;;;7.57;80.06
68301;BME280;55146;47.468;18.806;2024-03-25T07:25:03;99178.97;;;7.89;80.27
68301;BME280;55146;47.468;18.806;2024-03-25T07:27:29;99183.81;;;8.07;78.05
68301;BME280;55146;47.468;18.806;2024-03-25T07:29:54;99189.69;;;7.70;79.72
68301;BME280;55146;47.468;18.806;2024-03-25T07:32:19;99184.75;;;7.78;80.46
68301;BME280;55146;47.468;18.806;2024-03-25T07:34:45;99184.53;;;7.54;81.93
68301;BME280;55146;47.468;18.806;2024-03-25T07:37:11;99183.72;;;7.43;80.26
68301;BME280;55146;47.468;18.806;2024-03-25T07:39:36;99191.13;;;7.32;81.30
68301;BME280;55146;47.468;18.806;2024-03-25T07:42:01;99186.72;;;7.42;79.47
68301;BME280;55146;47.468;18.806;2024-03-25T07:44:27;99185.09;;;7.46;80.23
68301;BME280;55146;47.468;18.806;2024-03-25T07:46:52;99180.19;;;7.38;79.48
68301;BME280;55146;47.468;18.806;2024-03-25T07:49:17;99191.13;;;7.38;79.18
68301;BME280;55146;47.468;18.806;2024-03-25T07:51:43;99180.16;;;7.53;80.28
68301;BME280;55146;47.468;18.806;2024-03-25T07:54:08;99184.81;;;7.42;82.09
68301;BME280;55146;47.468;18.806;2024-03-25T07:56:35;99186.94;;;7.76;80.37
68301;BME280;55146;47.468;18.806;2024-03-25T07:59:02;99188.50;;;7.97;80.85
68301;BME280;55146;47.468;18.806;2024-03-25T08:01:29;99193.56;;;8.39;75.38
68301;BME280;55146;47.468;18.806;2024-03-25T08:03:54;99195.72;;;8.86;76.58
68301;BME280;55146;47.468;18.806;2024-03-25T08:06:20;99191.34;;;9.48;73.27
68301;BME280;55146;47.468;18.806;2024-03-25T08:08:46;99196.72;;;9.87;69.89
68301;BME280;55146;47.468;18.806;2024-03-25T08:11:12;99187.13;;;10.32;68.67
68301;BME280;55146;47.468;18.806;2024-03-25T08:13:37;99191.81;;;10.50;67.49
68301;BME280;55146;47.468;18.806;2024-03-25T08:16:03;99184.25;;;10.42;65.75
68301;BME280;55146;47.468;18.806;2024-03-25T08:18:28;99192.44;;;10.47;65.91
68301;BME280;55146;47.468;18.806;2024-03-25T08:20:54;99186.41;;;10.64;65.52
68301;BME280;55146;47.468;18.806;2024-03-25T08:23:19;99192.87;;;10.91;64.66
68301;BME280;55146;47.468;18.806;2024-03-25T08:25:45;99193.37;;;10.75;64.71
68301;BME280;55146;47.468;18.806;2024-03-25T08:28:10;99194.75;;;11.28;64.55
68301;BME280;55146;47.468;18.806;2024-03-25T08:30:35;99193.00;;;11.65;62.82
68301;BME280;55146;47.468;18.806;2024-03-25T08:33:01;99191.75;;;11.90;60.99
68301;BME280;55146;47.468;18.806;2024-03-25T08:35:27;99197.88;;;11.54;61.31
68301;BME280;55146;47.468;18.806;2024-03-25T08:37:52;99190.03;;;11.15;63.23
68301;BME280;55146;47.468;18.806;2024-03-25T08:40:18;99200.69;;;11.03;62.54
68301;BME280;55146;47.468;18.806;2024-03-25T08:42:43;99200.03;;;10.55;65.53
68301;BME280;55146;47.468;18.806;2024-03-25T08:45:08;99193.47;;;10.70;63.64
68301;BME280;55146;47.468;18.806;2024-03-25T08:47:34;99197.66;;;10.86;63.94
68301;BME280;55146;47.468;18.806;2024-03-25T08:49:59;99202.16;;;10.39;62.38
68301;BME280;55146;47.468;18.806;2024-03-25T08:52:24;99190.84;;;10.22;64.66
68301;BME280;55146;47.468;18.806;2024-03-25T08:54:50;99205.38;;;9.99;65.67
68301;BME280;55146;47.468;18.806;2024-03-25T08:57:15;99197.66;;;10.67;65.54
68301;BME280;55146;47.468;18.806;2024-03-25T08:59:40;99202.38;;;10.99;64.20
68301;BME280;55146;47.468;18.806;2024-03-25T09:02:06;99199.13;;;11.29;62.99
68301;BME280;55146;47.468;18.806;2024-03-25T09:04:33;99192.94;;;11.38;60.81
68301;BME280;55146;47.468;18.806;2024-03-25T09:06:58;99187.78;;;10.99;61.06
68301;BME280;55146;47.468;18.806;2024-03-25T09:09:23;99196.66;;;10.77;61.61
68301;BME280;55146;47.468;18.806;2024-03-25T09:12:09;99190.88;;;10.60;61.31
68301;BME280;55146;47.468;18.806;2024-03-25T09:14:34;99190.28;;;11.32;62.68
68301;BME280;55146;47.468;18.806;2024-03-25T09:16:59;99195.81;;;11.92;58.89
68301;BME280;55146;47.468;18.806;2024-03-25T09:19:25;99187.84;;;12.04;58.14
68301;BME280;55146;47.468;18.806;2024-03-25T09:21:51;99190.31;;;11.79;57.95
68301;BME280;55146;47.468;18.806;2024-03-25T09:24:16;99188.00;;;11.67;59.27
68301;BME280;55146;47.468;18.806;2024-03-25T09:26:42;99197.94;;;11.03;61.07
68301;BME280;55146;47.468;18.806;2024-03-25T09:29:08;99192.56;;;10.74;60.22
68301;BME280;55146;47.468;18.806;2024-03-25T09:31:33;99187.66;;;10.90;62.07
68301;BME280;55146;47.468;18.806;2024-03-25T09:33:58;99194.63;;;11.20;59.90
68301;BME280;55146;47.468;18.806;2024-03-25T09:36:24;99203.47;;;11.49;60.72
68301;BME280;55146;47.468;18.806;2024-03-25T09:38:49;99195.91;;;11.09;59.03
68301;BME280;55146;47.468;18.806;2024-03-25T09:41:16;99196.94;;;11.45;58.55
68301;BME280;55146;47.468;18.806;2024-03-25T09:43:48;99196.56;;;11.52;56.30
68301;BME280;55146;47.468;18.806;2024-03-25T09:46:15;99204.59;;;11.48;55.81
68301;BME280;55146;47.468;18.806;2024-03-25T09:48:42;99208.53;;;11.28;57.10
68301;BME280;55146;47.468;18.806;2024-03-25T09:51:09;99209.28;;;11.15;58.66
68301;BME280;55146;47.468;18.806;2024-03-25T09:53:34;99202.69;;;11.30;56.83
68301;BME280;55146;47.468;18.806;2024-03-25T09:56:00;99196.62;;;11.93;59.83
68301;BME280;55146;47.468;18.806;2024-03-25T09:58:26;99195.41;;;11.99;57.25
68301;BME280;55146;47.468;18.806;2024-03-25T10:00:52;99202.66;;;11.49;57.94
68301;BME280;55146;47.468;18.806;2024-03-25T10:03:18;99199.16;;;11.43;55.87
68301;BME280;55146;47.468;18.806;2024-03-25T10:05:44;99204.75;;;11.70;55.93
68301;BME280;55146;47.468;18.806;2024-03-25T10:08:09;99208.50;;;12.21;56.84
68301;BME280;55146;47.468;18.806;2024-03-25T10:10:35;99202.09;;;12.61;52.33
68301;BME280;55146;47.468;18.806;2024-03-25T10:13:05;99200.28;;;12.92;53.87
68301;BME280;55146;47.468;18.806;2024-03-25T10:15:32;99186.75;;;13.27;51.35
68301;BME280;55146;47.468;18.806;2024-03-25T10:17:57;99205.69;;;13.64;50.51
68301;BME280;55146;47.468;18.806;2024-03-25T10:20:22;99198.34;;;13.60;49.12
68301;BME280;55146;47.468;18.806;2024-03-25T10:22:48;99198.22;;;12.98;51.11
68301;BME280;55146;47.468;18.806;2024-03-25T10:25:26;99196.03;;;12.73;52.42
68301;BME280;55146;47.468;18.806;2024-03-25T10:27:58;99200.84;;;13.17;51.95
68301;BME280;55146;47.468;18.806;2024-03-25T10:30:24;99199.53;;;13.01;52.42
68301;BME280;55146;47.468;18.806;2024-03-25T10:33:03;99191.00;;;13.11;51.99
68301;BME280;55146;47.468;18.806;2024-03-25T10:35:31;99199.13;;;12.71;52.36
68301;BME280;55146;47.468;18.806;2024-03-25T10:37:59;99201.00;;;12.35;51.60
68301;BME280;55146;47.468;18.806;2024-03-25T10:40:27;99196.22;;;11.99;52.96
68301;BME280;55146;47.468;18.806;2024-03-25T10:43:19;99204.91;;;11.47;55.07
68301;BME280;55146;47.468;18.806;2024-03-25T10:45:45;99191.53;;;12.13;54.40
68301;BME280;55146;47.468;18.806;2024-03-25T10:48:17;99193.78;;;12.39;51.43
68301;BME280;55146;47.468;18.806;2024-03-25T10:50:45;99189.75;;;12.94;52.72
68301;BME280;55146;47.468;18.806;2024-03-25T10:53:11;99188.28;;;12.97;52.45
68301;BME280;55146;47.468;18.806;2024-03-25T10:55:38;99182.56;;;13.07;51.08
68301;BME280;55146;47.468;18.806;2024-03-25T10:58:07;99176.50;;;13.05;52.99
68301;BME280;55146;47.468;18.806;2024-03-25T11:00:34;99166.97;;;13.33;49.37
68301;BME280;55146;47.468;18.806;2024-03-25T11:03:00;99182.72;;;13.11;48.52
68301;BME280;55146;47.468;18.806;2024-03-25T11:05:26;99182.16;;;13.00;51.38
68301;BME280;55146;47.468;18.806;2024-03-25T11:07:52;99178.06;;;13.64;49.23
68301;BME280;55146;47.468;18.806;2024-03-25T11:10:17;99176.88;;;13.26;48.70
68301;BME280;55146;47.468;18.806;2024-03-25T11:12:43;99172.06;;;13.40;51.54
68301;BME280;55146;47.468;18.806;2024-03-25T11:15:09;99178.97;;;13.51;46.29
68301;BME280;55146;47.468;18.806;2024-03-25T11:17:36;99168.41;;;13.53;46.10
68301;BME280;55146;47.468;18.806;2024-03-25T11:20:13;99162.56;;;13.86;46.95
68301;BME280;55146;47.468;18.806;2024-03-25T11:22:49;99160.78;;;13.90;47.11
68301;BME280;55146;47.468;18.806;2024-03-25T11:25:16;99165.47;;;14.29;46.04
68301;BME280;55146;47.468;18.806;2024-03-25T11:27:43;99164.56;;;14.42;45.88
68301;BME280;55146;47.468;18.806;2024-03-25T11:30:13;99155.87;;;14.35;43.41
68301;BME280;55146;47.468;18.806;2024-03-25T11:32:54;99167.09;;;13.82;46.58
68301;BME280;55146;47.468;18.806;2024-03-25T11:35:20;99156.75;;;13.34;48.39
68301;BME280;55146;47.468;18.806;2024-03-25T11:37:46;99163.34;;;13.47;48.08
68301;BME280;55146;47.468;18.806;2024-03-25T11:40:13;99171.53;;;13.29;48.40
68301;BME280;55146;47.468;18.806;2024-03-25T11:42:40;99171.91;;;13.36;49.28
68301;BME280;55146;47.468;18.806;2024-03-25T11:45:06;99154.66;;;13.40;51.94
68301;BME280;55146;47.468;18.806;2024-03-25T11:47:32;99154.13;;;13.07;51.92
68301;BME280;55146;47.468;18.806;2024-03-25T11:49:58;99153.91;;;13.03;52.02
68301;BME280;55146;47.468;18.806;2024-03-25T11:52:23;99144.56;;;12.90;51.11
68301;BME280;55146;47.468;18.806;2024-03-25T11:54:55;99150.81;;;12.96;51.88
68301;BME280;55146;47.468;18.806;2024-03-25T11:57:21;99156.53;;;12.86;51.78
68301;BME280;55146;47.468;18.806;2024-03-25T11:59:47;99161.94;;;12.69;54.37
68301;BME280;55146;47.468;18.806;2024-03-25T12:02:16;99168.44;;;12.23;61.33
68301;BME280;55146;47.468;18.806;2024-03-25T12:04:43;99159.88;;;12.11;63.32
68301;BME280;55146;47.468;18.806;2024-03-25T12:07:13;99168.13;;;11.97;62.33
68301;BME280;55146;47.468;18.806;2024-03-25T12:09:38;99185.00;;;11.50;63.46
68301;BME280;55146;47.468;18.806;2024-03-25T12:12:23;99174.59;;;10.82;67.20
68301;BME280;55146;47.468;18.806;2024-03-25T12:14:49;99198.47;;;10.49;64.10
68301;BME280;55146;47.468;18.806;2024-03-25T12:17:15;99203.84;;;10.11;63.37
68301;BME280;55146;47.468;18.806;2024-03-25T12:19:41;99205.50;;;10.36;62.19
68301;BME280;55146;47.468;18.806;2024-03-25T12:22:07;99190.53;;;10.24;59.27
68301;BME280;55146;47.468;18.806;2024-03-25T12:24:33;99181.78;;;10.40;56.41
68301;BME280;55146;47.468;18.806;2024-03-25T12:26:59;99185.59;;;10.63;56.87
68301;BME280;55146;47.468;18.806;2024-03-25T12:29:24;99177.28;;;11.52;56.51
68301;BME280;55146;47.468;18.806;2024-03-25T12:31:57;99178.16;;;11.93;56.43
68301;BME280;55146;47.468;18.806;2024-03-25T12:34:25;99182.56;;;12.08;56.71
68301;BME280;55146;47.468;18.806;2024-03-25T12:36:50;99192.44;;;12.86;58.14
68301;BME280;55146;47.468;18.806;2024-03-25T12:39:19;99192.50;;;12.94;56.53
68301;BME280;55146;47.468;18.806;2024-03-25T12:41:44;99191.97;;;12.70;56.12
68301;BME280;55146;47.468;18.806;2024-03-25T12:44:12;99192.13;;;12.24;55.56
68301;BME280;55146;47.468;18.806;2024-03-25T12:46:38;99196.44;;;12.16;57.26
68301;BME280;55146;47.468;18.806;2024-03-25T12:49:05;99194.31;;;11.67;59.97
68301;BME280;55146;47.468;18.806;2024-03-25T12:51:30;99198.38;;;11.89;57.71
68301;BME280;55146;47.468;18.806;2024-03-25T12:53:56;99194.16;;;11.91;60.11